createdAt,value
2022-08-25T00:00:22.132Z,10.11
2022-08-25T00:02:56.255Z,9.98
2022-08-25T00:05:32.392Z,10.15
2022-08-25T00:08:03.484Z,10.10
2022-08-25T00:10:32.504Z,10.07
2022-08-25T00:13:01.661Z,10.11
2022-08-25T00:15:31.948Z,10.09
2022-08-25T00:18:01.917Z,9.87
2022-08-25T00:20:31.467Z,10.01
2022-08-25T00:22:59.876Z,10.16
2022-08-25T00:25:29.046Z,10.13
2022-08-25T00:27:59.604Z,10.25
2022-08-25T00:30:28.589Z,10.27
2022-08-25T00:32:57.674Z,10.11
2022-08-25T00:35:27.756Z,10.35
2022-08-25T00:37:56.776Z,10.31
2022-08-25T00:40:27.113Z,10.32
2022-08-25T00:42:56.662Z,10.21
2022-08-25T00:45:26.676Z,10.27
2022-08-25T00:48:02.703Z,10.23
2022-08-25T00:50:35.626Z,10.36
2022-08-25T00:53:06.521Z,10.55
2022-08-25T00:55:40.055Z,10.73
2022-08-25T00:58:20.955Z,10.83
2022-08-25T01:00:52.981Z,10.92
2022-08-25T01:03:23.937Z,10.94
2022-08-25T01:06:04.244Z,10.93
2022-08-25T01:08:34.403Z,11.03
2022-08-25T01:11:06.148Z,11.17
2022-08-25T01:13:46.446Z,11.26
2022-08-25T01:16:17.136Z,11.33
2022-08-25T01:18:54.167Z,11.34
2022-08-25T01:21:25.529Z,10.65
2022-08-25T01:23:56.068Z,11.41
2022-08-25T01:26:28.459Z,11.59
2022-08-25T01:29:20.176Z,11.17
2022-08-25T01:31:51.131Z,11.74
2022-08-25T01:34:22.044Z,11.94
2022-08-25T01:36:51.099Z,11.84
2022-08-25T01:39:19.806Z,12.01
2022-08-25T01:42:21.029Z,12.29
2022-08-25T01:44:49.906Z,12.77
2022-08-25T01:47:18.584Z,14.17
2022-08-25T01:49:47.603Z,15.28
2022-08-25T01:52:29.739Z,16.82
2022-08-25T01:54:58.362Z,17.15
2022-08-25T01:57:26.969Z,18.50
2022-08-25T01:59:55.477Z,19.09
2022-08-25T02:02:24.048Z,19.76
2022-08-25T02:04:55.002Z,20.30
2022-08-25T02:07:23.612Z,20.65
2022-08-25T02:09:52.052Z,21.07
2022-08-25T02:12:20.843Z,21.45
2022-08-25T02:14:49.562Z,21.72
2022-08-25T02:17:18.185Z,22.10
2022-08-25T02:19:46.809Z,22.31
2022-08-25T02:22:15.308Z,22.53
2022-08-25T02:24:44.116Z,22.67
2022-08-25T02:27:12.714Z,22.85
2022-08-25T02:29:41.537Z,23.04
2022-08-25T02:32:11.049Z,23.13
2022-08-25T02:34:42.119Z,23.04
2022-08-25T02:37:10.775Z,22.92
2022-08-25T02:39:39.452Z,23.37
2022-08-25T02:42:08.183Z,23.63
2022-08-25T02:44:36.865Z,23.49
2022-08-25T02:47:05.601Z,23.49
2022-08-25T02:49:34.286Z,23.54
2022-08-25T02:52:02.997Z,23.66
2022-08-25T02:54:32.095Z,23.58
2022-08-25T02:57:00.633Z,23.53
2022-08-25T02:59:29.682Z,23.57
2022-08-25T03:01:58.109Z,23.57
2022-08-25T03:04:26.983Z,23.65
2022-08-25T03:06:55.989Z,23.62
2022-08-25T03:09:24.599Z,23.43
2022-08-25T03:11:55.782Z,23.31
2022-08-25T03:14:24.652Z,23.69
2022-08-25T03:16:53.209Z,23.41
2022-08-25T03:19:25.067Z,23.57
2022-08-25T03:21:56.615Z,23.24
2022-08-25T03:24:25.480Z,23.38
2022-08-25T03:26:54.524Z,23.43
2022-08-25T03:29:25.571Z,23.46
2022-08-25T03:31:56.073Z,23.44
2022-08-25T03:34:26.536Z,23.50
2022-08-25T03:36:56.742Z,23.70
2022-08-25T03:39:26.834Z,23.68
2022-08-25T03:41:55.994Z,23.74
2022-08-25T03:44:24.608Z,23.78
2022-08-25T03:46:53.609Z,23.70
2022-08-25T03:49:24.577Z,23.96
2022-08-25T03:51:55.688Z,24.14
2022-08-25T03:54:26.257Z,24.07
2022-08-25T03:56:54.865Z,24.29
2022-08-25T03:59:23.318Z,24.20
2022-08-25T04:01:55.233Z,24.37
2022-08-25T04:04:24.797Z,24.44
2022-08-25T04:06:53.629Z,24.45
2022-08-25T04:09:22.550Z,24.47
2022-08-25T04:11:52.031Z,24.53
2022-08-25T04:14:22.647Z,24.58
2022-08-25T04:16:51.526Z,24.64
2022-08-25T04:19:21.290Z,24.85
2022-08-25T04:21:50.301Z,24.86
2022-08-25T04:24:19.044Z,24.62
2022-08-25T04:26:50.391Z,24.70
2022-08-25T04:29:23.508Z,24.69
2022-08-25T04:31:54.235Z,24.80
2022-08-25T04:34:29.584Z,24.76
2022-08-25T04:37:00.393Z,24.92
2022-08-25T04:39:29.191Z,24.53
2022-08-25T04:41:58.077Z,25.07
2022-08-25T04:44:26.831Z,25.16
2022-08-25T04:46:55.433Z,25.16
2022-08-25T04:49:24.272Z,25.32
2022-08-25T04:51:53.502Z,25.27
2022-08-25T04:54:23.170Z,25.15
2022-08-25T04:56:54.178Z,25.30
2022-08-25T04:59:24.976Z,25.28
2022-08-25T05:01:59.836Z,25.30
2022-08-25T05:04:29.143Z,25.48
2022-08-25T05:06:58.437Z,25.54
2022-08-25T05:09:28.049Z,25.57
2022-08-25T05:11:56.874Z,25.70
2022-08-25T05:14:26.550Z,25.77
2022-08-25T05:16:56.430Z,25.79
2022-08-25T05:19:25.266Z,25.92
2022-08-25T05:21:54.508Z,26.04
2022-08-25T05:24:23.120Z,26.12
2022-08-25T05:26:51.757Z,26.09
2022-08-25T05:29:20.375Z,26.09
2022-08-25T05:31:50.971Z,26.03
2022-08-25T05:34:21.008Z,26.24
2022-08-25T05:36:50.487Z,26.16
2022-08-25T05:39:19.159Z,26.45
2022-08-25T05:41:47.893Z,26.57
2022-08-25T05:44:20.829Z,26.56
2022-08-25T05:46:50.178Z,26.62
2022-08-25T05:49:18.952Z,26.39
2022-08-25T05:51:47.513Z,26.60
2022-08-25T05:54:19.091Z,26.66
2022-08-25T05:56:48.243Z,26.81
2022-08-25T05:59:17.113Z,26.94
2022-08-25T06:02:04.398Z,27.00
2022-08-25T06:04:33.115Z,26.97
2022-08-25T06:07:02.039Z,27.08
2022-08-25T06:09:30.667Z,27.26
2022-08-25T06:11:59.576Z,27.41
2022-08-25T06:14:28.276Z,27.38
2022-08-25T06:16:57.777Z,27.09
2022-08-25T06:19:26.716Z,27.50
2022-08-25T06:21:57.098Z,27.53
2022-08-25T06:24:27.540Z,27.55
2022-08-25T06:26:57.457Z,27.35
2022-08-25T06:29:26.840Z,27.60
2022-08-25T06:31:55.667Z,27.57
2022-08-25T06:34:24.504Z,27.63
2022-08-25T06:36:53.896Z,27.80
2022-08-25T06:39:23.188Z,27.71
2022-08-25T06:41:53.607Z,27.89
2022-08-25T06:44:23.486Z,27.92
2022-08-25T06:46:52.550Z,27.99
2022-08-25T06:49:22.304Z,28.05
2022-08-25T06:51:51.186Z,28.12
2022-08-25T06:54:19.797Z,28.27
2022-08-25T06:56:49.612Z,28.15
2022-08-25T06:59:19.256Z,28.26
2022-08-25T07:01:50.215Z,27.86
2022-08-25T07:04:19.658Z,28.15
2022-08-25T07:06:48.746Z,28.47
2022-08-25T07:09:17.997Z,28.59
2022-08-25T07:11:47.265Z,28.57
2022-08-25T07:14:17.902Z,28.71
2022-08-25T07:16:49.617Z,28.57
2022-08-25T07:19:22.638Z,28.60
2022-08-25T07:21:53.572Z,28.38
2022-08-25T07:24:23.552Z,28.69
2022-08-25T07:26:52.286Z,28.37
2022-08-25T07:29:31.624Z,28.67
2022-08-25T07:32:03.215Z,28.83
2022-08-25T07:34:52.214Z,28.83
2022-08-25T07:37:48.405Z,28.89
2022-08-25T07:40:15.900Z,28.89
2022-08-25T07:42:45.565Z,28.62
2022-08-25T07:45:20.519Z,28.23
2022-08-25T07:47:51.557Z,28.90
2022-08-25T07:50:21.959Z,28.97
2022-08-25T07:52:55.258Z,28.88
2022-08-25T07:55:27.018Z,28.81
2022-08-25T07:57:57.094Z,28.67
2022-08-25T08:00:28.396Z,28.87
2022-08-25T08:02:58.481Z,28.85
2022-08-25T08:05:28.595Z,28.87
2022-08-25T08:07:57.745Z,28.89
2022-08-25T08:10:47.909Z,28.97
2022-08-25T08:13:18.625Z,29.01
2022-08-25T08:15:48.453Z,28.95
2022-08-25T08:18:18.377Z,28.90
2022-08-25T08:20:48.982Z,28.95
2022-08-25T08:23:19.978Z,28.93
2022-08-25T08:25:48.929Z,29.02
2022-08-25T08:28:17.586Z,29.14
2022-08-25T08:30:52.871Z,29.03
2022-08-25T08:33:24.352Z,29.15
2022-08-25T08:36:12.674Z,29.06
2022-08-25T08:38:43.837Z,29.18
2022-08-25T08:42:11.177Z,29.21
2022-08-25T08:44:46.530Z,29.19
2022-08-25T08:47:23.565Z,29.28
2022-08-25T08:50:03.805Z,29.28
2022-08-25T08:52:45.379Z,29.15
2022-08-25T08:55:27.685Z,28.97
2022-08-25T08:58:00.794Z,28.78
2022-08-25T09:00:30.453Z,29.04
2022-08-25T09:03:02.451Z,29.05
2022-08-25T09:05:47.163Z,28.92
2022-08-25T09:08:20.264Z,29.00
2022-08-25T09:11:16.420Z,28.88
2022-08-25T09:13:59.321Z,28.94
2022-08-25T09:16:56.374Z,28.86
2022-08-25T09:19:50.566Z,28.94
2022-08-25T09:22:35.036Z,28.85
2022-08-25T09:25:29.488Z,28.75
2022-08-25T09:28:34.881Z,28.82
2022-08-25T09:31:05.268Z,28.83
2022-08-25T09:33:35.948Z,28.78
2022-08-25T09:36:08.803Z,28.68
2022-08-25T09:38:38.519Z,28.58
2022-08-25T09:41:08.435Z,28.73
2022-08-25T09:43:45.706Z,28.59
2022-08-25T09:46:27.006Z,28.54
2022-08-25T09:49:11.870Z,28.57
2022-08-25T09:51:44.478Z,28.57
2022-08-25T09:54:19.969Z,28.65
2022-08-25T09:56:55.097Z,28.63
2022-08-25T09:59:36.055Z,28.66
2022-08-25T10:02:26.261Z,28.59
2022-08-25T10:04:57.542Z,28.46
2022-08-25T10:07:40.509Z,28.22
2022-08-25T10:10:32.400Z,28.43
2022-08-25T10:13:06.267Z,28.40
2022-08-25T10:15:39.475Z,28.38
2022-08-25T10:18:30.788Z,28.20
2022-08-25T10:21:13.492Z,28.28
2022-08-25T10:23:56.713Z,28.19
2022-08-25T10:26:44.490Z,28.20
2022-08-25T10:29:35.421Z,27.73
2022-08-25T10:32:21.744Z,28.14
2022-08-25T10:34:56.809Z,28.09
2022-08-25T10:37:28.305Z,28.13
2022-08-25T10:40:26.244Z,28.06
2022-08-25T10:43:08.305Z,28.02
2022-08-25T10:46:00.900Z,27.98
2022-08-25T10:48:32.846Z,27.99
2022-08-25T10:51:37.564Z,27.95
2022-08-25T10:54:29.745Z,27.81
2022-08-25T10:57:08.143Z,28.03
2022-08-25T10:59:50.088Z,28.08
2022-08-25T11:02:55.991Z,28.07
2022-08-25T11:05:44.820Z,27.86
2022-08-25T11:08:34.467Z,27.77
2022-08-25T11:11:22.943Z,27.65
2022-08-25T11:14:11.156Z,27.82
2022-08-25T11:16:48.589Z,27.85
2022-08-25T11:19:22.647Z,27.81
2022-08-25T11:22:03.719Z,27.69
2022-08-25T11:24:48.936Z,27.66
2022-08-25T11:27:24.751Z,27.34
2022-08-25T11:30:13.035Z,27.47
2022-08-25T11:32:48.134Z,27.38
2022-08-25T11:35:27.838Z,27.55
2022-08-25T11:38:11.831Z,27.65
2022-08-25T11:40:56.344Z,27.57
2022-08-25T11:43:43.500Z,27.56
2022-08-25T11:46:23.503Z,27.40
2022-08-25T11:49:17.841Z,27.49
2022-08-25T11:51:52.314Z,27.41
2022-08-25T11:54:46.690Z,27.36
2022-08-25T11:57:26.687Z,27.35
2022-08-25T12:00:20.443Z,27.29
2022-08-25T12:02:51.842Z,27.19
2022-08-25T12:05:22.862Z,27.11
2022-08-25T12:08:15.969Z,27.14
2022-08-25T12:11:11.250Z,27.10
2022-08-25T12:13:55.041Z,26.74
2022-08-25T12:16:48.325Z,26.97
2022-08-25T12:19:41.097Z,26.84
2022-08-25T12:22:29.819Z,26.93
2022-08-25T12:25:39.784Z,26.56
2022-08-25T12:28:44.935Z,26.55
2022-08-25T12:31:53.400Z,26.57
2022-08-25T12:34:47.663Z,26.70
2022-08-25T12:37:27.032Z,25.98
2022-08-25T12:40:16.019Z,26.50
2022-08-25T12:43:04.215Z,26.33
2022-08-25T12:45:39.321Z,26.40
2022-08-25T12:48:26.153Z,26.22
2022-08-25T12:51:01.752Z,26.21
2022-08-25T12:53:40.965Z,26.18
2022-08-25T12:56:17.903Z,26.12
2022-08-25T12:59:04.517Z,25.79
2022-08-25T13:01:52.521Z,25.96
2022-08-25T13:04:44.715Z,25.99
2022-08-25T13:07:16.213Z,25.90
2022-08-25T13:10:04.366Z,25.80
2022-08-25T13:13:01.703Z,25.60
2022-08-25T13:15:48.760Z,25.75
2022-08-25T13:18:33.313Z,25.57
2022-08-25T13:21:33.632Z,25.61
2022-08-25T13:24:22.404Z,25.54
2022-08-25T13:27:12.786Z,25.33
2022-08-25T13:29:58.059Z,25.34
2022-08-25T13:32:39.681Z,25.14
2022-08-25T13:35:32.190Z,25.26
2022-08-25T13:38:19.218Z,25.09
2022-08-25T13:40:51.903Z,24.89
2022-08-25T13:43:29.647Z,24.98
2022-08-25T13:46:02.120Z,24.61
2022-08-25T13:48:40.429Z,24.57
2022-08-25T13:51:31.331Z,24.27
2022-08-25T13:54:05.525Z,24.36
2022-08-25T13:56:40.913Z,23.82
2022-08-25T13:59:40.175Z,23.89
2022-08-25T14:02:15.228Z,23.73
2022-08-25T14:04:51.145Z,23.33
2022-08-25T14:07:23.381Z,23.49
2022-08-25T14:10:01.425Z,23.04
2022-08-25T14:12:38.085Z,23.23
2022-08-25T14:15:18.572Z,23.07
2022-08-25T14:18:19.161Z,22.79
2022-08-25T14:21:15.294Z,22.81
2022-08-25T14:23:54.870Z,22.40
2022-08-25T14:26:37.073Z,22.32
2022-08-25T14:29:31.860Z,22.30
2022-08-25T14:32:13.564Z,22.25
2022-08-25T14:34:47.567Z,21.90
2022-08-25T14:37:32.443Z,21.92
2022-08-25T14:40:09.934Z,21.86
2022-08-25T14:42:49.525Z,21.85
2022-08-25T14:45:28.037Z,21.29
2022-08-25T14:48:17.382Z,21.53
2022-08-25T14:50:54.395Z,21.46
2022-08-25T14:53:51.871Z,21.27
2022-08-25T14:56:29.750Z,21.13
2022-08-25T14:59:13.933Z,20.95
2022-08-25T15:01:52.528Z,21.12
2022-08-25T15:04:28.861Z,21.22
2022-08-25T15:07:00.815Z,21.23
2022-08-25T15:09:33.580Z,21.52
2022-08-25T15:12:02.546Z,21.56
2022-08-25T15:14:33.295Z,21.51
2022-08-25T15:17:04.231Z,21.56
2022-08-25T15:19:35.923Z,21.19
2022-08-25T15:22:05.479Z,21.00
2022-08-25T15:24:37.792Z,20.97
2022-08-25T15:27:10.099Z,21.04
2022-08-25T15:29:39.090Z,20.78
2022-08-25T15:32:09.015Z,20.61
2022-08-25T15:34:39.160Z,20.68
2022-08-25T15:37:16.503Z,20.90
2022-08-25T15:39:46.747Z,20.66
2022-08-25T15:42:17.164Z,21.07
2022-08-25T15:44:53.189Z,21.15
2022-08-25T15:47:23.632Z,21.12
2022-08-25T15:50:02.539Z,21.10
2022-08-25T15:52:44.401Z,21.26
2022-08-25T15:55:16.236Z,21.35
2022-08-25T16:00:13.612Z,21.42
2022-08-25T16:02:46.383Z,21.45
2022-08-25T16:05:16.432Z,21.16
2022-08-25T16:07:51.793Z,21.32
2022-08-25T16:10:21.402Z,21.23
2022-08-25T16:12:50.423Z,21.31
2022-08-25T16:15:23.896Z,21.35
2022-08-25T16:17:59.926Z,21.40
2022-08-25T16:20:29.944Z,21.47
2022-08-25T16:23:03.860Z,21.41
2022-08-25T16:25:33.464Z,21.46
2022-08-25T16:28:05.087Z,21.28
2022-08-25T16:30:34.292Z,21.45
2022-08-25T16:33:03.536Z,21.37
2022-08-25T16:35:35.322Z,21.21
2022-08-25T16:38:09.606Z,21.52
2022-08-25T16:40:43.422Z,21.59
2022-08-25T16:43:12.154Z,21.56
2022-08-25T16:45:41.143Z,21.62
2022-08-25T16:48:11.363Z,21.59
2022-08-25T16:50:41.346Z,21.55
2022-08-25T16:53:31.079Z,21.47
2022-08-25T16:56:06.625Z,21.55
2022-08-25T16:58:39.765Z,21.32
2022-08-25T17:01:11.942Z,21.51
2022-08-25T17:03:44.493Z,21.55
2022-08-25T17:06:15.167Z,21.48
2022-08-25T17:08:44.481Z,21.48
2022-08-25T17:11:27.262Z,21.43
2022-08-25T17:13:59.541Z,21.16
2022-08-25T17:16:30.681Z,21.39
2022-08-25T17:19:02.686Z,21.34
2022-08-25T17:21:37.701Z,21.35
2022-08-25T17:24:07.283Z,21.38
2022-08-25T17:26:39.501Z,21.25
2022-08-25T17:29:14.093Z,21.12
2022-08-25T17:31:46.041Z,21.12
2022-08-25T17:34:16.940Z,21.02
2022-08-25T17:36:52.290Z,21.08
2022-08-25T17:39:22.721Z,21.05
2022-08-25T17:41:52.184Z,21.01
2022-08-25T17:44:21.602Z,20.85
2022-08-25T17:46:52.361Z,21.02
2022-08-25T17:49:21.203Z,20.67
2022-08-25T17:51:51.782Z,20.67
2022-08-25T17:54:20.777Z,20.97
2022-08-25T17:56:49.476Z,20.82
2022-08-25T17:59:19.695Z,20.92
2022-08-25T18:01:48.405Z,20.69
2022-08-25T18:04:19.505Z,20.63
2022-08-25T18:06:49.081Z,20.55
2022-08-25T18:09:18.822Z,20.80
2022-08-25T18:11:47.848Z,20.68
2022-08-25T18:14:17.282Z,20.61
2022-08-25T18:16:46.468Z,20.59
2022-08-25T18:19:16.323Z,20.68
2022-08-25T18:21:44.820Z,20.59
2022-08-25T18:24:13.575Z,20.59
2022-08-25T18:26:42.889Z,20.57
2022-08-25T18:29:13.813Z,20.47
2022-08-25T18:31:42.782Z,20.48
2022-08-25T18:34:13.616Z,20.43
2022-08-25T18:36:42.182Z,20.23
2022-08-25T18:39:34.558Z,20.32
2022-08-25T18:42:06.285Z,20.30
2022-08-25T18:44:35.609Z,20.09
2022-08-25T18:47:07.662Z,20.14
2022-08-25T18:49:37.855Z,19.90
2022-08-25T18:52:07.572Z,20.17
2022-08-25T18:54:36.410Z,20.08
2022-08-25T18:57:05.151Z,20.02
2022-08-25T18:59:37.903Z,19.83
2022-08-25T19:02:07.665Z,20.03
2022-08-25T19:04:37.601Z,19.70
2022-08-25T19:07:08.009Z,19.87
2022-08-25T19:09:39.852Z,19.70
2022-08-25T19:12:11.789Z,19.88
2022-08-25T19:14:54.113Z,19.83
2022-08-25T19:17:24.761Z,19.93
2022-08-25T19:19:53.575Z,19.85
2022-08-25T19:22:40.788Z,19.79
2022-08-25T19:25:11.292Z,19.77
2022-08-25T19:27:41.035Z,19.71
2022-08-25T19:30:10.962Z,19.54
2022-08-25T19:32:43.090Z,19.73
2022-08-25T19:35:22.043Z,19.74
2022-08-25T19:37:52.770Z,19.64
2022-08-25T19:40:23.235Z,19.33
2022-08-25T19:42:53.809Z,19.59
2022-08-25T19:45:24.812Z,19.55
2022-08-25T19:47:54.087Z,19.49
2022-08-25T19:50:25.922Z,19.43
2022-08-25T19:52:54.728Z,19.33
2022-08-25T19:55:25.422Z,19.11
2022-08-25T19:57:54.700Z,19.30
2022-08-25T20:00:30.347Z,19.29
2022-08-25T20:03:01.262Z,19.21
2022-08-25T20:05:31.593Z,19.05
2022-08-25T20:08:00.603Z,19.14
2022-08-25T20:10:35.620Z,19.10
2022-08-25T20:13:10.420Z,19.07
2022-08-25T20:15:39.603Z,19.14
2022-08-25T20:18:08.677Z,18.99
2022-08-25T20:20:37.489Z,19.03
2022-08-25T20:23:26.827Z,18.48
2022-08-25T20:25:56.705Z,18.87
2022-08-25T20:28:25.340Z,18.74
2022-08-25T20:30:54.041Z,18.81
2022-08-25T20:33:23.616Z,18.63
2022-08-25T20:35:53.186Z,18.66
2022-08-25T20:38:22.041Z,18.66
2022-08-25T20:40:50.995Z,18.57
2022-08-25T20:43:20.820Z,18.66
2022-08-25T20:45:50.050Z,18.47
2022-08-25T20:48:19.066Z,18.41
2022-08-25T20:50:57.622Z,18.52
2022-08-25T20:53:27.133Z,18.29
2022-08-25T20:55:55.911Z,18.33
2022-08-25T20:58:24.389Z,18.30
2022-08-25T21:00:55.529Z,18.05
2022-08-25T21:03:24.795Z,18.26
2022-08-25T21:05:54.236Z,18.32
2022-08-25T21:08:23.717Z,18.24
2022-08-25T21:10:54.327Z,18.22
2022-08-25T21:13:23.742Z,18.13
2022-08-25T21:15:52.956Z,17.93
2022-08-25T21:18:21.706Z,18.01
2022-08-25T21:20:50.343Z,17.94
2022-08-25T21:23:24.176Z,17.66
2022-08-25T21:25:53.593Z,17.79
2022-08-25T21:28:22.379Z,17.90
2022-08-25T21:30:52.041Z,17.84
2022-08-25T21:33:42.873Z,17.83
2022-08-25T21:36:13.457Z,17.54
2022-08-25T21:38:42.657Z,17.53
2022-08-25T21:41:16.239Z,17.55
2022-08-25T21:43:46.305Z,17.63
2022-08-25T21:46:20.920Z,17.29
2022-08-25T21:48:50.978Z,17.46
2022-08-25T21:51:23.317Z,17.45
2022-08-25T21:53:52.474Z,17.51
2022-08-25T21:56:23.357Z,17.03
2022-08-25T21:58:54.915Z,17.33
2022-08-25T22:01:23.760Z,17.37
2022-08-25T22:03:52.270Z,17.34
2022-08-25T22:06:23.240Z,17.26
2022-08-25T22:08:52.476Z,17.25
2022-08-25T22:11:23.387Z,17.02
2022-08-25T22:13:54.135Z,17.14
2022-08-25T22:16:23.951Z,17.13
2022-08-25T22:18:54.134Z,17.01
2022-08-25T22:21:23.986Z,17.07
2022-08-25T22:23:52.581Z,16.90
2022-08-25T22:26:22.074Z,16.77
2022-08-25T22:28:50.812Z,16.93
2022-08-25T22:31:20.648Z,16.83
2022-08-25T22:33:51.002Z,16.91
2022-08-25T22:36:22.907Z,16.89
2022-08-25T22:38:56.313Z,16.76
2022-08-25T22:41:28.117Z,16.62
2022-08-25T22:43:57.697Z,16.71
2022-08-25T22:46:29.085Z,16.78
2022-08-25T22:48:58.254Z,16.62
2022-08-25T22:51:32.128Z,16.68
2022-08-25T22:54:02.886Z,16.44
2022-08-25T22:56:35.628Z,16.48
2022-08-25T22:59:09.174Z,16.60
2022-08-25T23:01:38.654Z,16.59
2022-08-25T23:04:08.805Z,16.54
2022-08-25T23:06:39.502Z,16.51
2022-08-25T23:09:10.991Z,16.20
2022-08-25T23:11:40.591Z,16.53
2022-08-25T23:14:11.830Z,16.41
2022-08-25T23:16:43.312Z,16.43
2022-08-25T23:19:14.376Z,16.29
2022-08-25T23:22:02.869Z,16.27
2022-08-25T23:24:32.195Z,16.27
2022-08-25T23:27:02.319Z,16.34
2022-08-25T23:29:35.083Z,16.33
2022-08-25T23:32:07.919Z,16.33
2022-08-25T23:34:38.993Z,16.21
2022-08-25T23:37:10.094Z,16.24
2022-08-25T23:39:41.499Z,16.16
2022-08-25T23:42:10.756Z,16.14
2022-08-25T23:44:39.467Z,16.21
2022-08-25T23:47:07.953Z,16.15
2022-08-25T23:49:40.728Z,16.07
2022-08-25T23:52:12.518Z,16.02
2022-08-25T23:54:41.223Z,16.18
2022-08-25T23:57:10.048Z,16.05
2022-08-25T23:59:39.214Z,16.23
